createdAt,value
2018-11-02T00:01:26.844Z,16.61
2018-11-02T00:07:21.871Z,18.69
2018-11-02T00:13:16.846Z,13.74
2018-11-02T00:19:11.931Z,17.53
2018-11-02T00:25:06.844Z,17.07
2018-11-02T00:31:01.867Z,16.49
2018-11-02T00:36:56.925Z,15.55
2018-11-02T00:42:52.087Z,9.1
2018-11-02T00:48:46.853Z,12.44
2018-11-02T00:54:41.919Z,15.98
2018-11-02T01:00:36.912Z,12.4
2018-11-02T01:06:31.888Z,14.07
2018-11-02T01:12:26.875Z,11.57
2018-11-02T01:18:21.901Z,12.29
2018-11-02T01:24:16.920Z,12.42
2018-11-02T01:30:11.895Z,13.23
2018-11-02T01:36:06.914Z,12.95
2018-11-02T01:42:01.886Z,13.94
2018-11-02T01:47:56.897Z,17.09
2018-11-02T01:53:51.910Z,15.29
2018-11-02T01:59:46.912Z,15.17
2018-11-02T02:05:41.952Z,14.3
2018-11-02T02:11:36.916Z,14.71
2018-11-02T02:17:31.907Z,15.73
2018-11-02T02:23:26.942Z,18.46
2018-11-02T02:29:21.915Z,12.96
2018-11-02T02:35:16.932Z,14
2018-11-02T02:41:11.929Z,12.88
2018-11-02T02:47:06.940Z,12.73
2018-11-02T02:53:01.937Z,10.28
2018-11-02T02:58:57.059Z,9.98
2018-11-02T03:04:52.033Z,8.36
2018-11-02T03:10:47.124Z,9.17
2018-11-02T03:16:42.019Z,7.51
2018-11-02T03:22:37.029Z,9
2018-11-02T03:28:31.967Z,7.12
2018-11-02T03:34:26.945Z,11.04
2018-11-02T03:40:21.970Z,9.68
2018-11-02T03:46:16.979Z,6.85
2018-11-02T03:52:11.951Z,5.67
2018-11-02T03:58:06.966Z,3.88
2018-11-02T04:04:01.997Z,7.03
2018-11-02T04:09:56.968Z,4.82
2018-11-02T04:15:52.010Z,4.06
2018-11-02T04:21:46.972Z,2.38
2018-11-02T04:27:41.986Z,1.65
2018-11-02T04:33:36.992Z,2.36
2018-11-02T04:39:31.983Z,0.94
2018-11-02T04:45:26.996Z,2.86
2018-11-02T04:51:22.033Z,4.08
2018-11-02T04:57:16.997Z,5.04
2018-11-02T05:03:11.994Z,6.23
2018-11-02T05:09:06.993Z,6.3
2018-11-02T05:15:02.030Z,11.56
2018-11-02T05:20:57.060Z,7.75
2018-11-02T05:26:52.012Z,9.75
2018-11-02T05:32:47.010Z,8.9
2018-11-02T05:38:42.043Z,8.7
2018-11-02T05:44:37.042Z,11.98
2018-11-02T05:50:32.076Z,13.03
2018-11-02T05:56:27.047Z,10.77
2018-11-02T06:02:22.063Z,9.94
2018-11-02T06:08:17.116Z,8.41
2018-11-02T06:14:12.074Z,8.66
2018-11-02T06:20:07.032Z,10.98
2018-11-02T06:26:02.037Z,10.14
2018-11-02T06:31:57.058Z,15.28
2018-11-02T06:37:52.043Z,9.58
2018-11-02T06:43:47.058Z,14.65
2018-11-02T06:49:42.090Z,10.21
2018-11-02T06:55:37.055Z,6.7
2018-11-02T07:01:32.051Z,9.04
2018-11-02T07:07:27.234Z,7.16
2018-11-02T07:13:22.079Z,9.29
2018-11-02T07:19:17.088Z,7.94
2018-11-02T07:25:12.179Z,3.93
2018-11-02T07:31:07.083Z,2.52
2018-11-02T07:37:02.082Z,1.72
2018-11-02T07:42:57.081Z,1.32
2018-11-02T07:48:52.087Z,1.26
2018-11-02T07:54:47.091Z,2.55
2018-11-02T08:00:42.077Z,1.59
2018-11-02T08:06:37.094Z,1.52
2018-11-02T08:12:32.084Z,1.06
2018-11-02T08:18:27.115Z,0.9
2018-11-02T08:24:22.190Z,3.07
2018-11-02T08:30:17.125Z,1.03
2018-11-02T08:36:12.122Z,0.98
2018-11-02T08:42:07.109Z,2.81
2018-11-02T08:48:02.116Z,2.51
2018-11-02T08:53:57.127Z,3.33
2018-11-02T08:59:52.112Z,4.25
2018-11-02T09:05:47.147Z,3.22
2018-11-02T09:11:42.166Z,9.68
2018-11-02T09:17:37.137Z,6.21
2018-11-02T09:23:32.159Z,8.38
2018-11-02T09:29:27.164Z,18.97
2018-11-02T09:35:22.139Z,6.32
2018-11-02T09:41:17.136Z,2.37
2018-11-02T09:47:12.219Z,3.35
2018-11-02T09:53:07.133Z,2.78
2018-11-02T09:59:02.151Z,4.05
2018-11-02T10:04:57.151Z,5.08
2018-11-02T10:10:52.172Z,7.89
2018-11-02T10:16:47.193Z,3.09
2018-11-02T10:22:42.172Z,7.2
2018-11-02T10:28:37.227Z,3.66
2018-11-02T10:34:32.204Z,3.64
2018-11-02T10:40:27.194Z,3.87
2018-11-02T10:46:22.181Z,2.21
2018-11-02T10:52:17.185Z,1.42
2018-11-02T10:58:12.191Z,1.14
2018-11-02T11:04:07.207Z,1.76
2018-11-02T11:10:02.193Z,2.23
2018-11-02T11:15:57.184Z,1.29
2018-11-02T11:21:52.249Z,2.22
2018-11-02T11:27:47.194Z,1.4
2018-11-02T11:33:42.232Z,1.48
2018-11-02T11:39:37.333Z,1.3
2018-11-02T11:45:32.229Z,1.41
2018-11-02T11:51:27.237Z,1.5
2018-11-02T11:57:22.239Z,1.27
2018-11-02T12:03:17.255Z,1.72
2018-11-02T12:09:12.270Z,3.65
2018-11-02T12:15:07.240Z,2.05
2018-11-02T12:21:02.264Z,2.59
2018-11-02T12:26:57.230Z,1.6
2018-11-02T12:32:52.258Z,2.61
2018-11-02T12:38:47.257Z,4.16
2018-11-02T12:44:42.245Z,7.02
2018-11-02T12:50:37.337Z,2.15
2018-11-02T12:56:32.268Z,1.2
2018-11-02T13:02:27.239Z,1.65
2018-11-02T13:08:22.274Z,3.74
2018-11-02T13:14:17.278Z,2.74
2018-11-02T13:20:12.381Z,1.89
2018-11-02T13:26:07.530Z,5.01
2018-11-02T13:32:02.441Z,1.98
2018-11-02T13:37:57.301Z,1.31
2018-11-02T13:43:52.288Z,1.9
2018-11-02T13:49:47.293Z,1.8
2018-11-02T13:55:42.306Z,1.92
2018-11-02T14:01:37.309Z,1.39
2018-11-02T14:07:32.282Z,4.97
2018-11-02T14:13:27.319Z,3.45
2018-11-02T14:19:22.280Z,1.7
2018-11-02T14:25:17.322Z,1.15
2018-11-02T14:31:12.311Z,1.55
2018-11-02T14:37:07.302Z,2.66
2018-11-02T14:43:02.288Z,2.39
2018-11-02T14:48:57.293Z,1.99
2018-11-02T14:54:52.313Z,3.71
2018-11-02T15:00:47.395Z,0.93
2018-11-02T15:06:42.329Z,2.06
2018-11-02T15:12:37.333Z,1.52
2018-11-02T15:18:32.320Z,3.64
2018-11-02T15:24:27.327Z,6.28
2018-11-02T15:30:22.329Z,8.2
2018-11-02T15:36:17.322Z,2.61
2018-11-02T15:42:12.322Z,3.13
2018-11-02T15:48:07.351Z,2.86
2018-11-02T15:54:02.352Z,2.44
2018-11-02T15:59:57.382Z,3.2
2018-11-02T16:05:52.333Z,1.58
2018-11-02T16:11:47.369Z,1.04
2018-11-02T16:17:42.359Z,1.14
2018-11-02T16:23:37.401Z,1.44
2018-11-02T16:29:32.358Z,1.79
2018-11-02T16:35:27.361Z,2.51
2018-11-02T16:41:22.416Z,1.27
2018-11-02T16:47:17.420Z,1.24
2018-11-02T16:53:12.379Z,1.11
2018-11-02T16:59:07.420Z,1.08
2018-11-02T17:05:02.479Z,0.86
2018-11-02T17:10:57.379Z,1.99
2018-11-02T17:16:52.397Z,2.77
2018-11-02T17:22:47.396Z,1.24
2018-11-02T17:28:42.410Z,1.33
2018-11-02T17:34:37.395Z,1.51
2018-11-02T17:40:32.388Z,1.02
2018-11-02T17:46:27.393Z,1.15
2018-11-02T17:52:22.410Z,1.41
2018-11-02T17:58:17.404Z,1.2
2018-11-02T18:04:12.425Z,1.55
2018-11-02T18:10:07.414Z,2.28
2018-11-02T18:16:02.482Z,0.68
2018-11-02T18:21:57.428Z,0.97
2018-11-02T18:27:52.434Z,1.1
2018-11-02T18:33:47.449Z,1.44
2018-11-02T18:39:42.476Z,0.73
2018-11-02T18:45:37.426Z,0.92
2018-11-02T18:51:32.444Z,0.87
2018-11-02T18:57:27.433Z,2.88
2018-11-02T19:03:22.444Z,2.82
2018-11-02T19:09:17.473Z,4.41
2018-11-02T19:15:12.477Z,2.6
2018-11-02T19:21:07.493Z,8.02
2018-11-02T19:27:02.529Z,4.42
2018-11-02T19:32:57.474Z,3.15
2018-11-02T19:38:52.461Z,4.53
2018-11-02T19:44:47.502Z,8.59
2018-11-02T19:50:42.617Z,7.13
2018-11-02T19:56:37.489Z,2.04
2018-11-02T20:02:32.520Z,3.61
2018-11-02T20:08:27.512Z,7.11
2018-11-02T20:14:22.491Z,6.8
2018-11-02T20:20:17.491Z,9.11
2018-11-02T20:26:12.492Z,6.96
2018-11-02T20:32:07.494Z,8.05
2018-11-02T20:38:02.513Z,3.94
2018-11-02T20:43:57.488Z,6.16
2018-11-02T20:49:52.585Z,2.8
2018-11-02T20:55:47.521Z,3.73
2018-11-02T21:01:42.508Z,5.13
2018-11-02T21:07:37.519Z,5.46
2018-11-02T21:13:32.572Z,5.89
2018-11-02T21:19:27.526Z,6.5
2018-11-02T21:25:22.522Z,5.06
2018-11-02T21:31:17.541Z,4.57
2018-11-02T21:37:12.546Z,5.05
2018-11-02T21:43:07.537Z,4.73
2018-11-02T21:49:02.548Z,3.97
2018-11-02T21:54:57.540Z,3.85
2018-11-02T22:00:52.542Z,4.64
2018-11-02T22:06:47.573Z,4.4
2018-11-02T22:12:42.544Z,6.98
2018-11-02T22:18:37.655Z,6.04
2018-11-02T22:24:32.569Z,6
2018-11-02T22:30:27.552Z,6.17
2018-11-02T22:36:22.569Z,5.7
2018-11-02T22:42:17.577Z,5.97
2018-11-02T22:48:12.565Z,5.35
2018-11-02T22:54:07.601Z,5.11
2018-11-02T23:00:02.607Z,5.58
2018-11-02T23:05:57.648Z,5.29
2018-11-02T23:11:52.587Z,4.79
2018-11-02T23:17:47.586Z,5.44
2018-11-02T23:23:42.603Z,5.15
2018-11-02T23:29:37.662Z,8.68
2018-11-02T23:35:32.605Z,4.85
2018-11-02T23:41:27.604Z,4.73
2018-11-02T23:47:22.654Z,4.83
2018-11-02T23:53:17.618Z,5.38
2018-11-02T23:59:12.603Z,6.53
